Search METAR Data

METAR Data for ENNO:

ENNO 241150Z 09006KT 9999 -SHRA FEW035 BKN053 09/M02 Q1009